Aeroporto :
LOGIN :

Iscrizione | Disclaimer

   EN    FR    IT 

 










Sommario :    VFR   VFR Marginale   IFR   IFR Intensivo   IFR Molto Intensivo
Visibilità : 
Base nubi : 
>= 8 km
>= 3000ft
5 / 8 km
1000 / 3000 ft
1500m / 5 km
500 / 1000 ft
800 / 1500m
200 / 500 ft
< 800m
< 200 ft
Simboli :   Temporali  Nebbia  Neve Forte  Precipitazioni Forti  Vento > 20 kt
SIGMETs :   Varie  Temporali  Ghiacco  Turbolenza  Onda orograficha  Ceneri Vulcaniche






- Altitudine del aeroporto : 586 ft


LIMN - Cameri Air Force Base

ULTIMO METAR :
  • 200555Z 35006KT 5000 -RA BR SCT010 OVC020 08/08 Q1014 RMK OVC VIS MIN 5000 WHT

METARs OBSOLETI :
  • 200455Z 36005KT 6000 SCT010 BKN020 08/07 Q1014

TAF TAF LIMN
Valido dal 20 a 06 ore il 20 a 15 ore UTC


200500Z 2006/2015 VRB04KT 6000 SCT010 BKN020
TEMPO 2006/2008 2000 BR
BECMG 2008/2010 9999 BKN020



MetMap, La meteo Aeronautica in un colpo d'occhio ! - Copyright ORBIFLY Dicembre 2007 - Disclaimer

ORBIFLY MET'MAP TEAM :

Programmazione e sviluppo : Alexandra Zaïnal
Concezione e sviluppo : Baudouin d'Aumeries
Co-Programmazione e sviluppo : Marc-Olivier Méhu
Supporto tecnico e logistico : Manuel Goepfert
Aiuto per la traduzione : Arnaldo La Scala

Contatto : metmap@orbifly.com




FONTI E CREDITI :

   NOAA